Racecast

Solomon Khamishon

Oak Ridge (CA) · 12 · SFLCA D1SJS D1 · Compare head to head

Athlete rating 124.7 2010 TF season
Best race 126.7 TF
Races 69
Seasons 4 2007 — 2010

RankedNation #3480·CA #515·CA D1 #248·SJS #43·SJS D1 #31·SFL #14·Team #17 ?

Speed rating — all races

Cross Country

XC speed rating

2008 XC 104.7

Oak Ridge (CA) · Grade 11

Date Meet Event Result Place Rating Difficulty PR/SR Flags
2008-10-18 Willow Hills Reservoir Course 4250m 17:53.7 46th · 7th on team 101.5 +0.041 ★PR ★CR SR CSR
2008-09-20 Willow Hills Reservoir Course 5000m 20:33 17th · 7th on team 105.5 +0.045 ★PR ★CR SR CSR
2008-09-10 Serrano Country Club 5000m 20:43 18th · 11th on team 107.2 +0.059 PR ★CR SR CSR RSR

2007 XC 111.5

Oak Ridge (CA) · Grade 10

Date Meet Event Result Place Rating Difficulty PR/SR Flags
2007-11-03 Calaveras County Fairgrounds 3218m 12:29 21st · 5th on team 112.3 +0.084 ★CR CSR
2007-10-25 Willow Hills Reservoir Course 3218m 13:19 7th · 6th on team 106.6 +0.088 ★CR CSR
2007-10-20 Mt. San Antonio College 4715m 19:00 12th · 4th on team 111.2 +0.077 ★PR ★CR SR CSR
2007-10-03 Granite Park 3218m 11:09 5th · 5th on team 114.2 -0.013 ★PR ★CR SR CSR
2007-09-12 Sly Park Resort 3218m 13:03 9th · 9th on team 110.0 +0.112 PR ★CR SR CSR
2007-09-07 Springview Drive 3000m 10:55 18th · 9th on team 117.5 +0.079 ★PR ★CR R SR CSR RSR
2007-09-01 Willow Hills Reservoir Course 2500m 9:20 6th · 6th on team 108.4 +0.036 ★PR ★CR R SR CSR RSR

Track & Field

TF speed rating

2010 TF 121.9

Oak Ridge (CA) · Grade 12

Date Meet Event Result Place Rating Difficulty PR/SR Flags
2010-05-21 Sac Joaquin Section Division II Finals 800m 1:59.31 11th · 2nd on team 125.0 -0.036
2010-05-19 Sac Joaquin Section Division II Prelims 800m 1:59.17 12th · 1st on team 124.9 -0.036
2010-05-14 SVC League Finals 800m 2:01.13 16th · 4th on team 123.8 -0.031
2010-05-14 SVC League Finals 800m 1:58.4 6th · 1st on team 126.7 -0.031 ★PR ★R SR RSR
2010-05-05 Race results → 400m 53.14 2nd · 2nd on team
2010-05-05 Race results → 200m 24.24 4th · 2nd on team ★PR SR
2010-05-01 Sacramento Meet of Champions 800m 2:00.87 21st · 1st on team 123.3 -0.037
2010-04-28 Oak Ridge VS Cordova SVC League Meet 400m 54.64 4th · 2nd on team -0.031
2010-04-24 Glenn Poole Invitational 800m 2:03.02 3rd · 1st on team 122.8 -0.025
2010-04-24 Glenn Poole Invitational 400m 56.85 27th · 3rd on team -0.025
2010-04-16 Race results → 800m 2:00.86 15th · 1st on team 124.6 PR R SR RSR
2010-04-14 Vista del Lago vs. Oak Ridge 800m 2:12.2 5th · 3rd on team 115.3 -0.017
2010-04-14 Vista del Lago vs. Oak Ridge 400m 53.04 1st · 1st on team -0.017 ★PR SR
2010-04-10 Bella Vista Invitational 800m 2:02.47 8th · 1st on team 122.4 -0.036 SR RSR
2010-04-07 Galt/Liberty Ranch @ Oak Ridge 800m 2:04.6 3rd · 2nd on team 121.9 -0.018 RSR
2010-03-24 Race results → 800m 2:04 2nd · 2nd on team 121.4 SR RSR
2010-03-17 Race results → 200m 24.44 2nd · 2nd on team PR SR
2010-03-17 Race results → 800m 2:05.4 3rd · 3rd on team 120.0 SR RSR
2010-03-13 King/Gilbert Invite 800m 2:07.64 15th · 3rd on team 118.6 -0.027 SR RSR
2010-03-13 King/Gilbert Invite 400m 54.82 16th · 2nd on team -0.027 SR
2010-03-06 Race results → 800m 2:09.64 12th · 1st on team 116.1 SR RSR

2009 TF 117.8

Oak Ridge (CA) · Grade 11

Date Meet Event Result Place Rating Difficulty PR/SR Flags
2009-05-22 Sac Joaquin Section Division II Prelims & Finals 800m 2:03.64 27th · 1st on team 121.0 -0.036
2009-05-15 SVC League Finals 800m 2:02.64 7th · 2nd on team 122.6 -0.031
2009-05-15 SVC League Finals 800m 2:02.34 6th · 1st on team 122.9 -0.031 R RSR
2009-05-13 SVC League Trials 800m 2:02.34 3rd · 1st on team 122.7 -0.031 PR R SR RSR
2009-05-06 Race results → 400m 53.74 2nd · 2nd on team PR SR
2009-05-06 Race results → 800m 2:10.7 2nd · 2nd on team 115.2
2009-04-29 Oak Ridge vs Cordova 800m 2:13.4 3rd · 3rd on team 113.9 -0.018
2009-04-24 BV Distance Carnival 800m 2:06.6 5th · 1st on team 118.0 -0.036 PR R SR RSR
2009-04-24 Bronco Roundup Distance Carnival 800m 2:06.53 11th · 1st on team 118.5 -0.036 PR R SR RSR
2009-04-18 Depth Charge 800m 2:11.6 5th · 2nd on team 115.3 -0.020 PR SR RSR
2009-04-18 2009 Depth Charge 800m 2:11.56 6th · 2nd on team 115.4 -0.020 PR SR RSR
2009-04-15 Oak Ridge vs Vista del Lago 400m 54.34 1st · 1st on team -0.018 PR SR
2009-04-01 Galt V Oak Ridge 400m 57.04 5th · 1st on team -0.009
2009-04-01 Galt V Oak Ridge 800m 2:19 9th · 5th on team 110.6 -0.009 SR RSR
2009-03-25 Christian Brothers vs Oak Ridge 400m 55.34 2nd · 2nd on team -0.018 PR SR
2009-03-25 Christian Brothers vs Oak Ridge 200m 25.14 4th · 4th on team -0.018 PR SR
2009-03-18 Union Mine vs Oak Ridge 400m 56.44 4th · 4th on team -0.013 SR
2009-03-07 Race results → 400m 56.48 21st · 1st on team SR

2008 TF 111.0

Oak Ridge (CA) · Grade 10

Date Meet Event Result Place Rating Difficulty PR/SR Flags
2008-05-09 SVC League Finals 800m 2:13.93 10th · 6th on team 112.3 -0.031
2008-05-09 SVC League Finals 800m 2:11.88 7th · 3rd on team 114.0 -0.031 RSR
2008-05-09 SVC League Finals 400m 56.67 12th · 2nd on team -0.031
2008-05-07 SVC League Trials 800m 2:13.93 12th · 6th on team 112.2 -0.031
2008-05-07 SVC League Trials 800m 2:11.88 8th · 3rd on team 114.0 -0.031 PR SR
2008-05-07 SVC League Trials 400m 56.67 13th · 2nd on team -0.031
2008-04-23 Union Mine vs Oak Ridge 400m 58.74 2nd · 2nd on team -0.013
2008-04-23 Union Mine vs Oak Ridge 800m 2:25 3rd · 3rd on team 106.0 -0.013
2008-04-16 Cordova vs Oak Ridge High 400m 58.74 1st · 1st on team -0.031
2008-04-09 Race results → 400m 56.74 1st · 1st on team
2008-04-09 Race results → 800m 2:13.6 1st · 1st on team 112.9
2008-04-05 Thunder Invitational 400m 56.23 10th · 2nd on team PR SR
2008-04-05 Thunder Invitational 800m 2:12.87 4th · 1st on team 114.0 RSR
2008-04-02 Christian Brothers vs. Oak Ridge 800m 2:22.8 2nd · 2nd on team 106.4 -0.017
2008-04-02 Christian Brothers vs. Oak Ridge 400m 56.34 1st · 1st on team -0.017 PR SR
2008-03-29 Bella Vista Invitational 1600m 5:16.2 11th · 3rd on team 106.4 -0.036 ★PR SR
2008-03-29 Bella Vista Invitational 800m 2:12.1 5th · 2nd on team 113.1 -0.036 PR SR RSR
2008-03-26 Galt v. Oak Ridge v. Vista Del Lago 400m 57.14 5th · 3rd on team -0.018 PR SR
2008-03-08 Bob King/Don Gilbert Invitational 800m 2:17.12 3rd · 2nd on team 110.0 -0.027 PR SR RSR
2008-03-08 Bob King/Don Gilbert Invitational 400m 57.8 4th · 2nd on team -0.027 PR SR